Time;durP1;ratioP1;P1;durP2;ratioP2;P2;SDS_P1;SDS_P2;PMS_P1;PMS_P2;Temp;Humidity;BMP_temperature;BMP_pressure;BME280_temperature;BME280_humidity;BME280_pressure;Samples;Min_cycle;Max_cycle;Signal;HPM_P1;HPM_P2
2022/03/04 00:01:34;;;;;;;12.40;7.90;;;;;;;1.88;77.03;98197.38;31368;1319;3026211;-61
2022/03/04 01:52:51;;;;;;;22.70;12.20;;;;;;;1.29;79.73;98194.44;31485;1313;3026350;-69
2022/03/04 02:17:28;;;;;;;19.00;10.10;;;;;;;1.70;77.95;98190.77;31412;1318;3027620;-65
2022/03/04 02:28:36;;;;;;;19.40;10.70;;;;;;;1.71;77.07;98188.64;31541;1306;3026391;-61
2022/03/04 02:31:06;;;;;;;20.60;12.20;;;;;;;1.85;76.95;98192.85;25214;1309;3026662;-63
2022/03/04 02:33:35;;;;;;;16.80;8.70;;;;;;;1.71;77.23;98197.46;25174;1308;3027465;-67
2022/03/04 02:45:39;;;;;;;15.40;9.10;;;;;;;1.96;76.32;98194.27;31333;1319;3026571;-65
2022/03/04 03:34:46;;;;;;;20.10;10.80;;;;;;;1.20;78.10;98206.73;31288;1318;3026220;-65
2022/03/04 03:40:15;;;;;;;15.80;8.60;;;;;;;1.93;76.67;98199.89;31377;1319;3025759;-62
2022/03/04 03:42:45;;;;;;;17.10;10.60;;;;;;;2.10;75.09;98200.54;25015;1319;3027501;-63
2022/03/04 03:45:14;;;;;;;16.00;8.80;;;;;;;2.16;73.87;98196.80;25007;1319;3026578;-60
2022/03/04 03:59:58;;;;;;;18.70;10.20;;;;;;;1.53;75.90;98214.61;31537;1309;3026724;-66
2022/03/04 04:02:28;;;;;;;20.80;11.00;;;;;;;1.77;75.12;98209.92;25153;1309;3027398;-65
2022/03/04 04:04:57;;;;;;;16.10;8.40;;;;;;;1.71;74.61;98211.09;25105;1309;3026555;-65
2022/03/04 04:07:26;;;;;;;15.10;7.70;;;;;;;1.36;75.89;98216.23;25189;1309;3026635;-66
2022/03/04 04:09:55;;;;;;;14.70;7.30;;;;;;;1.53;76.20;98208.92;25148;1309;3052213;-64
2022/03/04 04:12:24;;;;;;;16.80;7.00;;;;;;;1.94;74.62;98201.92;23720;1309;8554508;-67
2022/03/04 04:14:53;;;;;;;13.90;7.10;;;;;;;2.13;73.69;98204.52;25227;1309;3029805;-66
2022/03/04 04:17:22;;;;;;;14.60;7.00;;;;;;;1.89;73.87;98213.05;25214;1309;3048741;-64
2022/03/04 04:27:10;;;;;;;18.10;9.90;;;;;;;1.46;75.43;98236.18;31396;1318;3026064;-65
2022/03/04 04:29:39;;;;;;;19.80;10.70;;;;;;;1.54;75.74;98228.23;24949;1320;3027479;-64
2022/03/04 04:32:09;;;;;;;16.50;6.90;;;;;;;1.57;75.42;98231.88;24902;1320;3027144;-64
2022/03/04 04:34:38;;;;;;;18.00;8.00;;;;;;;2.03;74.46;98235.39;24913;1321;3048788;-67
2022/03/04 04:39:04;;;;;;;16.10;8.30;;;;;;;2.32;72.73;98233.39;31463;1315;3025749;-69
2022/03/04 04:41:34;;;;;;;17.80;10.40;;;;;;;2.32;72.47;98233.23;25061;1318;3026367;-63
2022/03/04 04:44:04;;;;;;;15.30;8.40;;;;;;;2.21;72.46;98245.11;25013;1318;3029815;-71
2022/03/04 04:46:32;;;;;;;18.10;8.20;;;;;;;1.97;73.32;98234.09;24997;1318;3026197;-69
2022/03/04 04:49:01;;;;;;;14.90;8.60;;;;;;;1.68;74.28;98238.66;25059;1318;3026355;-67
2022/03/04 04:51:28;;;;;;;14.90;8.60;;;;;;;1.64;74.52;98237.13;22438;1315;10363820;-68
2022/03/04 04:53:57;;;;;;;15.50;8.60;;;;;;;1.55;75.51;98239.92;25037;1313;3052014;-66
2022/03/04 04:56:26;;;;;;;15.90;8.10;;;;;;;1.94;74.33;98243.05;25112;1313;3026560;-74
2022/03/04 04:58:55;;;;;;;15.90;7.90;;;;;;;1.86;74.27;98243.73;25105;1313;3048791;-68
2022/03/04 05:01:24;;;;;;;17.80;7.50;;;;;;;1.87;74.34;98241.30;25101;1315;3026948;-71
2022/03/04 05:03:52;;;;;;;16.50;7.30;;;;;;;1.66;74.85;98253.24;25122;1313;3058361;-66
2022/03/04 05:06:21;;;;;;;17.30;8.50;;;;;;;1.61;75.36;98251.05;25175;1315;3026665;-70
2022/03/04 05:08:50;;;;;;;16.50;7.80;;;;;;;1.55;75.29;98259.07;25084;1314;3051415;-70
2022/03/04 05:11:19;;;;;;;20.10;9.00;;;;;;;1.41;75.89;98255.89;25213;1313;3027154;-69
2022/03/04 05:13:48;;;;;;;15.20;6.90;;;;;;;1.37;76.64;98255.52;25093;1313;3052738;-70
2022/03/04 05:16:17;;;;;;;17.10;8.00;;;;;;;1.96;74.63;98254.53;25032;1313;3029152;-70
2022/03/04 05:18:46;;;;;;;18.70;8.50;;;;;;;2.25;73.77;98251.50;25135;1313;3050942;-68
2022/03/04 05:21:15;;;;;;;17.30;8.60;;;;;;;2.19;73.54;98257.98;25184;1313;3030101;-68
2022/03/04 05:23:59;;;;;;;15.00;7.50;;;;;;;2.01;73.93;98261.39;25160;1313;3068163;-69
2022/03/04 05:26:41;;;;;;;18.50;8.60;;;;;;;1.75;74.61;98265.48;25109;1315;3048676;-70
2022/03/04 05:29:11;;;;;;;23.10;9.60;;;;;;;1.65;75.18;98266.06;25170;1313;3053101;-66
2022/03/04 05:31:41;;;;;;;22.70;9.70;;;;;;;1.44;75.77;98272.48;25157;1313;3026173;-71
2022/03/04 05:34:12;;;;;;;17.10;7.70;;;;;;;1.32;76.10;98279.02;25097;1313;3027523;-66
2022/03/04 05:36:41;;;;;;;15.00;7.20;;;;;;;1.31;76.50;98277.17;25145;1315;3027976;-71
2022/03/04 05:39:10;;;;;;;15.30;7.20;;;;;;;1.93;74.94;98268.80;25109;1313;3027997;-69
2022/03/04 05:41:39;;;;;;;17.50;8.00;;;;;;;2.31;73.15;98274.89;25169;1313;3056246;-69
2022/03/04 05:44:07;;;;;;;15.70;7.50;;;;;;;2.20;73.10;98266.77;25159;1313;3026520;-68
2022/03/04 05:46:36;;;;;;;13.30;6.60;;;;;;;2.24;72.64;98271.08;25086;1315;3051526;-68
2022/03/04 05:49:05;;;;;;;13.10;6.90;;;;;;;2.11;73.15;98272.52;25076;1313;3026543;-64
2022/03/04 05:51:34;;;;;;;19.90;8.80;;;;;;;1.92;73.35;98279.06;25106;1313;3054797;-69
2022/03/04 05:54:03;;;;;;;17.40;8.00;;;;;;;1.84;74.26;98278.86;25053;1313;3027021;-69
2022/03/04 05:56:32;;;;;;;18.70;9.20;;;;;;;1.68;74.36;98283.71;25131;1313;3048288;-74
2022/03/04 05:59:01;;;;;;;17.00;8.40;;;;;;;1.58;74.82;98293.13;25193;1313;3026994;-67
2022/03/04 06:01:30;;;;;;;13.80;7.80;;;;;;;1.54;75.36;98293.79;25098;1313;3068032;-73
2022/03/04 06:03:59;;;;;;;17.70;7.70;;;;;;;2.13;73.70;98296.61;25066;1315;3026379;-70
2022/03/04 06:06:27;;;;;;;16.40;7.40;;;;;;;2.39;72.30;98290.42;25152;1313;3050111;-74
2022/03/04 06:08:56;;;;;;;15.80;7.60;;;;;;;2.51;71.88;98299.73;25051;1313;3026637;-69
2022/03/04 06:11:25;;;;;;;16.20;8.40;;;;;;;2.33;71.86;98301.77;25061;1313;3051949;-69
2022/03/04 06:13:54;;;;;;;16.30;7.50;;;;;;;2.07;72.77;98301.52;25123;1313;3027337;-70
2022/03/04 06:16:23;;;;;;;16.40;8.40;;;;;;;1.99;73.01;98320.35;25106;1313;3049762;-71
2022/03/04 06:18:52;;;;;;;18.10;9.00;;;;;;;1.91;73.36;98312.43;25176;1313;3026486;-71
2022/03/04 06:21:22;;;;;;;17.40;8.70;;;;;;;1.76;73.63;98332.56;25149;1313;3056025;-72
2022/03/04 06:23:51;;;;;;;17.20;8.60;;;;;;;1.68;74.15;98320.63;25071;1313;3027211;-71
2022/03/04 06:26:20;;;;;;;13.80;7.40;;;;;;;1.58;74.21;98330.05;25156;1315;3026538;-68
2022/03/04 06:28:49;;;;;;;14.40;7.90;;;;;;;1.53;74.62;98328.00;25033;1313;3058122;-66
2022/03/04 06:31:17;;;;;;;13.60;6.20;;;;;;;2.16;73.33;98324.11;25098;1313;3026476;-72
2022/03/04 06:33:47;;;;;;;13.00;7.10;;;;;;;2.79;71.18;98319.86;25057;1313;3054647;-66
2022/03/04 06:36:16;;;;;;;19.10;7.60;;;;;;;2.60;70.63;98324.55;25106;1313;3028698;-70
2022/03/04 06:38:45;;;;;;;13.10;6.90;;;;;;;2.35;71.13;98323.45;25077;1313;3026226;-66
2022/03/04 06:41:14;;;;;;;13.90;8.30;;;;;;;2.20;71.52;98330.15;25114;1313;3026658;-68
2022/03/04 06:43:43;;;;;;;14.50;8.20;;;;;;;1.98;72.32;98328.52;25206;1313;3058303;-73
2022/03/04 06:46:13;;;;;;;19.90;9.30;;;;;;;1.98;72.66;98323.16;25021;1315;3026593;-72
2022/03/04 06:48:41;;;;;;;16.50;8.70;;;;;;;1.96;72.64;98331.23;25097;1313;3026577;-72
2022/03/04 06:51:11;;;;;;;22.20;10.40;;;;;;;1.90;72.95;98327.29;25035;1315;3058956;-69
2022/03/04 06:53:40;;;;;;;21.30;10.60;;;;;;;1.75;73.43;98327.43;25096;1313;3028393;-74
2022/03/04 06:56:09;;;;;;;18.80;9.90;;;;;;;1.92;73.20;98325.16;25118;1315;3055271;-65
2022/03/04 06:58:40;;;;;;;20.00;8.00;;;;;;;2.23;72.72;98324.50;25068;1314;3026889;-69
2022/03/04 07:01:09;;;;;;;19.70;9.60;;;;;;;2.58;71.64;98318.09;25170;1313;3051679;-70
2022/03/04 07:03:37;;;;;;;19.60;10.20;;;;;;;2.83;70.89;98317.09;25123;1313;3027651;-65
2022/03/04 07:06:07;;;;;;;16.50;9.20;;;;;;;2.58;70.87;98325.14;25073;1313;3048794;-68
2022/03/04 07:08:52;;;;;;;17.80;8.40;;;;;;;2.43;71.40;98316.70;25116;1313;3054432;-67
2022/03/04 07:11:21;;;;;;;19.90;10.60;;;;;;;2.29;71.57;98324.21;25128;1313;3027308;-70
2022/03/04 07:13:50;;;;;;;16.40;8.20;;;;;;;2.11;72.18;98325.90;25133;1313;3047963;-72
2022/03/04 07:16:19;;;;;;;23.90;10.60;;;;;;;1.96;72.58;98325.17;25076;1313;3026628;-65
2022/03/04 07:19:09;;;;;;;18.80;8.60;;;;;;;1.95;72.94;98313.64;25059;1315;3052828;-68
2022/03/04 07:21:47;;;;;;;19.90;9.20;;;;;;;1.86;72.69;98330.96;25060;1313;3057616;-72
2022/03/04 07:24:16;;;;;;;16.60;8.70;;;;;;;1.78;73.23;98322.16;25118;1313;3026605;-75
2022/03/04 07:26:45;;;;;;;15.70;8.30;;;;;;;1.83;73.39;98323.14;25055;1313;3051500;-72
2022/03/04 07:29:15;;;;;;;14.90;6.90;;;;;;;2.42;72.16;98324.50;25025;1313;3026595;-72
2022/03/04 07:31:44;;;;;;;16.30;8.80;;;;;;;2.88;70.73;98307.88;25093;1313;3026803;-66
2022/03/04 07:34:13;;;;;;;18.10;8.00;;;;;;;2.87;69.88;98311.20;25134;1313;3054552;-71
2022/03/04 07:36:41;;;;;;;16.20;7.60;;;;;;;2.71;70.32;98319.06;25100;1315;3030625;-75
2022/03/04 07:39:12;;;;;;;18.30;8.70;;;;;;;2.53;70.60;98315.70;25108;1315;3053103;-70
2022/03/04 07:41:41;;;;;;;17.40;7.80;;;;;;;2.35;71.00;98323.23;25047;1315;3027834;-65
2022/03/04 07:44:11;;;;;;;15.50;8.50;;;;;;;2.21;71.88;98317.66;25127;1313;3050032;-72
2022/03/04 07:46:40;;;;;;;20.70;9.40;;;;;;;2.19;71.88;98318.63;25109;1314;3030842;-66
2022/03/04 07:49:10;;;;;;;19.10;9.30;;;;;;;2.03;72.61;98324.19;25133;1315;3026162;-70
2022/03/04 07:51:39;;;;;;;17.40;8.90;;;;;;;2.06;72.81;98319.23;25140;1312;3026708;-70
2022/03/04 07:54:08;;;;;;;15.10;7.80;;;;;;;1.93;72.50;98322.54;25090;1315;3052750;-71
2022/03/04 07:56:38;;;;;;;16.20;8.20;;;;;;;2.11;72.20;98320.70;25076;1313;3029669;-73
2022/03/04 07:59:07;;;;;;;12.00;6.30;;;;;;;2.25;72.15;98332.52;25056;1313;3027389;-69
2022/03/04 08:01:36;;;;;;;14.00;7.00;;;;;;;2.91;70.59;98333.84;25090;1313;3030624;-67
2022/03/04 08:04:06;;;;;;;16.10;7.70;;;;;;;3.09;69.45;98331.92;25043;1315;3054302;-67
2022/03/04 08:06:35;;;;;;;15.10;7.50;;;;;;;3.15;68.81;98337.34;25051;1313;3026666;-71
2022/03/04 08:09:04;;;;;;;14.60;7.70;;;;;;;2.91;69.41;98342.82;25117;1313;3026138;-71
2022/03/04 08:11:34;;;;;;;14.90;7.40;;;;;;;2.53;70.23;98339.91;25092;1315;3054232;-74
2022/03/04 08:14:03;;;;;;;18.60;8.90;;;;;;;2.56;70.16;98342.73;25135;1313;3028506;-70
2022/03/04 08:16:33;;;;;;;16.30;8.10;;;;;;;2.49;70.36;98344.58;25108;1315;3026214;-68
2022/03/04 08:19:03;;;;;;;14.90;7.90;;;;;;;2.40;70.85;98348.80;25076;1315;3027584;-68
2022/03/04 08:21:33;;;;;;;16.90;8.70;;;;;;;2.28;70.88;98353.11;25044;1315;3026180;-68
2022/03/04 08:24:02;;;;;;;14.00;7.00;;;;;;;2.21;71.10;98357.97;25079;1315;3026992;-69
2022/03/04 08:26:31;;;;;;;14.90;7.60;;;;;;;2.16;70.86;98359.19;25045;1314;3051111;-70
2022/03/04 08:29:00;;;;;;;16.50;8.20;;;;;;;2.17;70.87;98362.91;25100;1313;3027280;-70
2022/03/04 08:31:29;;;;;;;17.40;9.10;;;;;;;2.21;70.77;98360.69;25112;1315;3026385;-70
2022/03/04 08:33:58;;;;;;;15.10;8.80;;;;;;;2.21;70.67;98354.80;25130;1315;3052009;-72
2022/03/04 08:36:27;;;;;;;17.40;8.30;;;;;;;2.24;70.68;98357.11;25097;1313;3026129;-71
2022/03/04 08:38:56;;;;;;;17.50;8.80;;;;;;;2.40;70.00;98360.02;25117;1313;3053558;-71
2022/03/04 08:41:25;;;;;;;14.20;8.30;;;;;;;2.31;70.34;98359.70;25153;1313;3026555;-70
2022/03/04 08:43:55;;;;;;;16.80;8.80;;;;;;;2.33;70.08;98358.45;25034;1315;3059103;-69
2022/03/04 08:46:24;;;;;;;14.30;7.30;;;;;;;2.40;69.76;98353.97;25092;1313;3026846;-72
2022/03/04 08:48:54;;;;;;;15.40;8.00;;;;;;;2.37;70.22;98353.95;25145;1315;3051250;-65
2022/03/04 08:51:25;;;;;;;14.70;6.70;;;;;;;2.31;70.27;98358.55;25058;1313;3029834;-76
2022/03/04 08:53:54;;;;;;;11.80;6.90;;;;;;;2.14;70.19;98359.27;25136;1313;3028916;-74
2022/03/04 08:56:26;;;;;;;15.10;7.70;;;;;;;2.09;70.52;98366.05;25087;1313;3030266;-71
2022/03/04 08:58:55;;;;;;;17.30;7.40;;;;;;;2.16;70.55;98358.83;25045;1315;3027035;-65
2022/03/04 09:01:24;;;;;;;13.70;6.50;;;;;;;2.25;70.42;98365.00;25065;1313;3027941;-70
2022/03/04 09:03:54;;;;;;;13.70;6.00;;;;;;;2.98;69.19;98362.19;25116;1315;3051825;-71
2022/03/04 09:06:23;;;;;;;11.30;5.80;;;;;;;3.53;67.03;98360.12;25049;1313;3026406;-65
2022/03/04 09:08:53;;;;;;;11.10;6.60;;;;;;;3.32;66.45;98364.40;25110;1315;3049248;-66
2022/03/04 09:11:22;;;;;;;9.70;5.40;;;;;;;3.20;66.80;98371.04;25048;1315;3027340;-71
2022/03/04 09:13:52;;;;;;;11.40;6.40;;;;;;;2.83;67.88;98378.83;25118;1313;3026788;-67
2022/03/04 09:16:36;;;;;;;13.10;6.90;;;;;;;2.90;67.87;98369.50;25055;1313;3051270;-67
2022/03/04 09:19:06;;;;;;;13.30;6.30;;;;;;;2.92;68.01;98366.84;25151;1313;3026483;-66
2022/03/04 09:21:34;;;;;;;16.60;7.00;;;;;;;2.74;68.48;98378.70;25097;1313;3055949;-78
2022/03/04 09:24:06;;;;;;;17.10;8.00;;;;;;;2.77;68.60;98378.23;25179;1313;3026886;-76
2022/03/04 09:26:36;;;;;;;11.10;6.00;;;;;;;2.59;69.10;98378.36;25108;1315;3026479;-71
2022/03/04 09:29:05;;;;;;;14.70;7.60;;;;;;;2.59;69.81;98379.91;25130;1313;3026756;-69
2022/03/04 09:31:35;;;;;;;14.30;7.80;;;;;;;2.48;70.64;98380.60;25122;1313;3052715;-71
2022/03/04 09:34:04;;;;;;;18.80;8.10;;;;;;;2.71;70.27;98367.60;25100;1315;3029524;-72
2022/03/04 09:36:33;;;;;;;14.10;7.90;;;;;;;2.58;70.74;98368.55;25044;1313;3030068;-74
2022/03/04 09:39:03;;;;;;;18.50;8.40;;;;;;;2.63;70.81;98369.89;25099;1315;3052378;-69
2022/03/04 09:41:32;;;;;;;12.90;5.50;;;;;;;2.62;70.88;98372.52;25114;1310;3026743;-66
2022/03/04 09:44:02;;;;;;;10.80;5.30;;;;;;;3.10;69.94;98376.86;25139;1313;3026228;-68
2022/03/04 09:46:32;;;;;;;16.10;7.80;;;;;;;3.72;67.93;98364.52;25103;1315;3049621;-71
2022/03/04 09:49:01;;;;;;;16.30;8.40;;;;;;;3.82;67.51;98363.48;25103;1315;3026860;-72
2022/03/04 09:51:32;;;;;;;13.60;6.90;;;;;;;3.78;67.58;98363.50;25105;1313;3026792;-69
2022/03/04 09:54:01;;;;;;;17.10;8.10;;;;;;;3.69;67.92;98372.81;25129;1315;3028624;-67
2022/03/04 09:56:31;;;;;;;17.70;9.00;;;;;;;3.45;68.44;98374.19;25127;1313;3052887;-72
2022/03/04 09:59:00;;;;;;;15.90;8.60;;;;;;;3.19;69.16;98377.14;25112;1314;3026654;-68
2022/03/04 10:01:29;;;;;;;15.90;8.50;;;;;;;3.13;69.54;98379.33;25051;1313;3051882;-65
2022/03/04 10:03:58;;;;;;;20.90;10.00;;;;;;;2.91;70.03;98386.92;25117;1313;3026790;-69
2022/03/04 10:06:27;;;;;;;21.90;9.90;;;;;;;2.77;70.97;98378.74;25058;1315;3057660;-65
2022/03/04 10:08:56;;;;;;;19.30;8.80;;;;;;;2.80;70.55;98380.20;25131;1313;3026179;-64
2022/03/04 10:11:36;;;;;;;20.90;9.60;;;;;;;2.60;71.38;98374.84;25054;1313;3053619;-65
2022/03/04 10:14:08;;;;;;;21.90;10.00;;;;;;;2.60;71.82;98368.98;25102;1315;3059324;-73
2022/03/04 10:16:38;;;;;;;17.80;8.30;;;;;;;2.81;71.46;98365.59;25160;1313;3026430;-69
2022/03/04 10:19:10;;;;;;;16.60;8.00;;;;;;;3.37;70.36;98358.98;25133;1315;3027459;-66
2022/03/04 10:21:48;;;;;;;18.70;8.30;;;;;;;3.71;68.83;98352.42;25113;1313;3026846;-65
2022/03/04 10:24:28;;;;;;;17.90;9.70;;;;;;;3.72;68.14;98358.27;25113;1316;3068855;-73
2022/03/04 10:27:13;;;;;;;21.10;9.50;;;;;;;3.75;68.25;98350.48;25029;1315;3049608;-72
2022/03/04 10:29:44;;;;;;;14.30;6.70;;;;;;;3.46;68.83;98347.10;25098;1315;3052838;-66
2022/03/04 10:32:18;;;;;;;20.40;9.20;;;;;;;3.27;69.09;98351.29;25040;1315;3026000;-66
2022/03/04 10:34:56;;;;;;;19.10;8.30;;;;;;;3.26;69.24;98353.27;25093;1314;3055474;-74
2022/03/04 10:37:48;;;;;;;18.60;7.60;;;;;;;3.05;69.76;98357.55;25095;1315;3049626;-72
2022/03/04 10:40:20;;;;;;;18.20;7.80;;;;;;;2.75;70.70;98350.31;25048;1313;3051696;-69
2022/03/04 10:42:56;;;;;;;16.50;8.80;;;;;;;2.82;70.74;98351.20;25127;1315;3026747;-73
2022/03/04 10:45:42;;;;;;;16.30;8.10;;;;;;;2.76;71.00;98342.13;25058;1315;3069504;-72
2022/03/04 10:48:12;;;;;;;16.80;7.90;;;;;;;2.71;70.90;98344.45;25130;1315;3049287;-68
2022/03/04 10:50:47;;;;;;;17.70;8.30;;;;;;;2.52;71.66;98341.00;25036;1313;3026164;-73
2022/03/04 10:53:19;;;;;;;13.70;6.90;;;;;;;2.63;72.03;98336.00;25106;1313;3052280;-67
2022/03/04 10:56:06;;;;;;;13.50;6.40;;;;;;;3.39;69.97;98326.82;25093;1315;3026227;-72
2022/03/04 10:58:37;;;;;;;13.80;6.00;;;;;;;3.68;68.21;98335.97;25102;1313;3052736;-75
2022/03/04 11:01:12;;;;;;;13.90;6.40;;;;;;;3.90;67.43;98326.05;25056;1315;3026576;-67
2022/03/04 11:03:41;;;;;;;11.90;6.50;;;;;;;3.65;67.62;98326.97;25150;1313;3053443;-75
2022/03/04 11:06:14;;;;;;;16.10;6.60;;;;;;;3.32;68.51;98329.44;25087;1315;3029252;-76
2022/03/04 11:08:43;;;;;;;16.70;7.80;;;;;;;3.21;69.02;98328.92;25117;1314;3055446;-71
2022/03/04 11:11:13;;;;;;;11.70;6.10;;;;;;;3.32;68.82;98324.95;25074;1315;3026967;-69
2022/03/04 11:13:46;;;;;;;18.20;8.10;;;;;;;3.28;69.00;98325.00;25065;1315;3052217;-67
2022/03/04 11:16:34;;;;;;;12.60;5.90;;;;;;;3.13;69.37;98325.17;25065;1315;3053093;-74
2022/03/04 11:19:06;;;;;;;14.90;7.60;;;;;;;2.97;70.01;98331.45;25161;1313;3026451;-72
2022/03/04 11:21:36;;;;;;;14.20;7.60;;;;;;;2.96;70.21;98332.90;25194;1315;3026780;-64
2022/03/04 11:24:05;;;;;;;13.20;6.90;;;;;;;3.03;70.00;98335.32;25069;1313;3028066;-71
2022/03/04 11:26:34;;;;;;;17.60;7.60;;;;;;;2.98;70.31;98334.73;25109;1315;3026616;-71
2022/03/04 11:29:05;;;;;;;17.30;8.10;;;;;;;2.94;70.48;98337.48;25078;1314;3026027;-76
2022/03/04 11:31:34;;;;;;;15.90;6.10;;;;;;;3.00;70.41;98334.80;25111;1313;3049121;-71
2022/03/04 11:34:03;;;;;;;11.00;5.60;;;;;;;3.65;69.01;98334.05;25063;1315;3026370;-70
2022/03/04 11:36:34;;;;;;;18.10;7.80;;;;;;;4.07;66.83;98335.17;25104;1315;3070369;-69
2022/03/04 11:39:05;;;;;;;13.40;6.30;;;;;;;4.04;66.72;98340.39;25088;1313;3026842;-71
2022/03/04 11:41:40;;;;;;;15.40;6.80;;;;;;;3.71;67.39;98333.05;25034;1314;3026720;-72
2022/03/04 11:44:18;;;;;;;15.00;7.70;;;;;;;3.53;68.09;98329.96;25147;1315;3052225;-71
2022/03/04 11:46:51;;;;;;;;;;;;;;;3.49;68.52;98326.34;25093;1313;3059014;-74
2022/03/04 11:49:30;;;;;;;16.80;7.10;;;;;;;3.29;69.10;98329.73;25097;1317;3050466;-71
2022/03/04 11:52:11;;;;;;;18.50;8.40;;;;;;;3.30;69.15;98322.11;25207;1313;3056078;-73
2022/03/04 11:54:44;;;;;;;17.40;7.80;;;;;;;3.20;69.33;98327.58;25167;1313;3051859;-68
2022/03/04 11:57:18;;;;;;;18.10;8.90;;;;;;;3.05;69.99;98334.00;25104;1315;3026517;-74
2022/03/04 12:00:00;;;;;;;17.70;7.80;;;;;;;3.03;70.45;98332.72;25117;1313;3050619;-72
2022/03/04 12:02:29;;;;;;;15.60;7.90;;;;;;;2.88;71.12;98348.51;25093;1318;3054868;-70
2022/03/04 12:05:21;;;;;;;16.10;8.30;;;;;;;2.81;71.34;98343.48;25075;1315;3026781;-72
2022/03/04 12:08:11;;;;;;;15.30;7.10;;;;;;;2.77;71.91;98340.38;25060;1313;3059028;-71
2022/03/04 12:10:49;;;;;;;13.10;6.80;;;;;;;2.88;71.54;98335.35;25140;1313;3050145;-73
2022/03/04 12:13:28;;;;;;;14.90;7.80;;;;;;;3.54;70.07;98337.17;25145;1314;3052509;-68
2022/03/04 12:16:16;;;;;;;12.70;6.60;;;;;;;4.10;68.07;98339.55;25093;1315;3054249;-67
2022/03/04 12:18:47;;;;;;;17.60;8.40;;;;;;;3.94;67.89;98345.75;25113;1313;3026799;-68
2022/03/04 12:21:25;;;;;;;16.70;8.30;;;;;;;3.66;68.55;98335.04;25186;1313;3053892;-73
2022/03/04 12:23:59;;;;;;;15.10;7.00;;;;;;;3.67;68.71;98332.05;25178;1313;3051304;-69
2022/03/04 12:26:34;;;;;;;14.70;7.20;;;;;;;3.45;69.33;98337.45;25120;1313;3071349;-68
2022/03/04 12:29:08;;;;;;;16.00;8.20;;;;;;;3.33;69.77;98341.01;25215;1313;3049237;-73
2022/03/04 12:31:41;;;;;;;18.20;8.60;;;;;;;3.24;70.06;98357.70;25183;1313;3052786;-68
2022/03/04 12:34:27;;;;;;;13.00;7.30;;;;;;;3.17;70.16;98358.88;25093;1313;3026754;-71
2022/03/04 12:36:56;;;;;;;17.70;8.20;;;;;;;3.19;70.53;98345.48;25127;1313;3055037;-75
2022/03/04 12:39:25;;;;;;;13.30;6.60;;;;;;;3.19;70.77;98347.54;25061;1313;3027271;-70
2022/03/04 12:41:56;;;;;;;15.10;7.80;;;;;;;3.07;70.87;98355.75;25128;1315;3054056;-69
2022/03/04 12:44:27;;;;;;;18.30;8.10;;;;;;;3.04;71.52;98356.58;25162;1313;3028569;-67
2022/03/04 12:46:57;;;;;;;15.30;7.30;;;;;;;3.02;71.88;98355.62;25093;1314;3027213;-68
2022/03/04 12:49:30;;;;;;;14.70;7.20;;;;;;;3.76;70.58;98342.50;25108;1314;3026714;-73
2022/03/04 12:51:59;;;;;;;13.50;6.30;;;;;;;4.13;68.46;98354.64;25123;1315;3026646;-70
2022/03/04 12:54:31;;;;;;;14.80;7.40;;;;;;;4.12;67.99;98355.41;25103;1313;3026460;-68
2022/03/04 12:57:01;;;;;;;17.50;8.10;;;;;;;4.04;68.21;98354.24;25136;1313;3051957;-68
2022/03/04 12:59:42;;;;;;;13.00;7.40;;;;;;;3.66;69.55;98358.90;25055;1313;3026361;-72
2022/03/04 13:02:11;;;;;;;19.70;7.70;;;;;;;3.50;70.24;98364.94;25137;1313;3071030;-69
2022/03/04 13:04:42;;;;;;;17.80;8.50;;;;;;;3.46;70.35;98352.11;25103;1313;3026913;-65
2022/03/04 13:07:11;;;;;;;17.70;8.00;;;;;;;3.47;70.28;98355.71;25112;1313;3052437;-68
2022/03/04 13:09:40;;;;;;;14.00;7.10;;;;;;;3.27;71.11;98364.30;25116;1314;3026646;-72
2022/03/04 13:12:09;;;;;;;18.10;7.70;;;;;;;3.13;71.73;98359.44;25066;1318;3052344;-68
2022/03/04 13:14:42;;;;;;;18.30;8.40;;;;;;;3.02;72.31;98361.52;25163;1315;3026881;-68
2022/03/04 13:17:11;;;;;;;15.60;7.80;;;;;;;3.08;72.36;98359.83;25113;1315;3030630;-70
2022/03/04 13:19:41;;;;;;;12.90;6.40;;;;;;;3.69;70.85;98348.73;25100;1313;3052123;-73
2022/03/04 13:22:12;;;;;;;20.20;8.60;;;;;;;4.14;69.05;98352.33;25167;1313;3028098;-72
2022/03/04 13:24:54;;;;;;;19.50;9.20;;;;;;;4.17;68.48;98365.00;25098;1313;3026477;-70
2022/03/04 13:27:23;;;;;;;23.20;8.80;;;;;;;4.02;68.93;98364.91;25146;1313;3050636;-71
2022/03/04 13:29:56;;;;;;;13.80;8.30;;;;;;;3.89;69.15;98361.75;25103;1314;3028262;-70
2022/03/04 13:32:26;;;;;;;24.60;10.10;;;;;;;3.62;69.89;98377.16;25140;1313;3068502;-76
2022/03/04 13:34:55;;;;;;;20.30;10.00;;;;;;;3.43;70.84;98368.39;25177;1313;3026477;-63
2022/03/04 13:37:29;;;;;;;18.30;8.80;;;;;;;3.39;71.03;98377.89;25108;1314;3026655;-73
2022/03/04 13:40:01;;;;;;;20.60;8.70;;;;;;;3.27;71.42;98371.05;25117;1313;3068631;-72
2022/03/04 13:42:32;;;;;;;22.00;10.70;;;;;;;3.09;72.07;98383.32;25143;1313;3026485;-67
2022/03/04 13:45:06;;;;;;;15.60;7.70;;;;;;;3.08;72.82;98384.95;25110;1318;3026647;-73
2022/03/04 13:47:42;;;;;;;14.50;7.20;;;;;;;3.62;71.75;98395.14;25092;1315;3054736;-70
2022/03/04 13:50:25;;;;;;;21.70;8.10;;;;;;;4.17;69.60;98381.66;25141;1313;3057406;-67
2022/03/04 13:52:58;;;;;;;21.10;9.20;;;;;;;3.94;69.68;98382.44;25118;1316;3050240;-70
2022/03/04 13:55:29;;;;;;;18.10;8.40;;;;;;;3.80;70.01;98384.02;25127;1313;3026596;-72
2022/03/04 13:58:05;;;;;;;20.00;8.40;;;;;;;3.69;70.48;98386.86;25132;1315;3026355;-66
2022/03/04 14:00:35;;;;;;;17.80;8.40;;;;;;;3.41;71.94;98387.85;25082;1316;3069187;-68
2022/03/04 14:03:10;;;;;;;18.20;7.80;;;;;;;3.21;72.80;98398.49;25096;1315;3027518;-70
2022/03/04 14:05:40;;;;;;;15.70;8.60;;;;;;;3.09;73.81;98398.91;25114;1316;3051972;-65
2022/03/04 14:08:13;;;;;;;13.80;7.30;;;;;;;2.85;75.15;98401.23;25117;1313;3026825;-72
2022/03/04 14:10:45;;;;;;;16.10;6.70;;;;;;;2.82;75.62;98400.30;25127;1313;3054637;-71
2022/03/04 14:13:16;;;;;;;17.10;8.30;;;;;;;3.46;74.41;98395.58;25110;1318;3025953;-69
2022/03/04 14:15:53;;;;;;;18.40;8.20;;;;;;;3.68;73.26;98401.44;25158;1315;3055871;-72
2022/03/04 14:18:29;;;;;;;16.50;7.30;;;;;;;3.48;73.83;98405.36;25089;1315;3026610;-71
2022/03/04 14:21:03;;;;;;;12.10;6.50;;;;;;;3.36;73.89;98408.02;25085;1313;3049806;-70
2022/03/04 14:23:33;;;;;;;13.40;7.50;;;;;;;3.25;74.09;98403.84;25125;1313;3053808;-70
2022/03/04 14:26:03;;;;;;;17.20;8.30;;;;;;;2.90;75.44;98400.29;25081;1315;3026812;-71
2022/03/04 14:28:32;;;;;;;13.40;7.80;;;;;;;2.78;75.82;98414.33;25104;1313;3029095;-68
2022/03/04 14:31:02;;;;;;;12.50;6.90;;;;;;;2.67;76.74;98400.67;25100;1313;3027214;-69
2022/03/04 14:33:31;;;;;;;9.00;5.30;;;;;;;3.15;75.73;98401.39;25148;1313;3026746;-73
2022/03/04 14:36:01;;;;;;;11.80;6.50;;;;;;;3.58;74.23;98410.04;25147;1313;3026916;-71
2022/03/04 14:38:31;;;;;;;15.80;7.40;;;;;;;3.60;73.57;98400.95;25128;1313;3050747;-71
2022/03/04 14:41:00;;;;;;;12.00;6.20;;;;;;;3.48;73.96;98408.46;25146;1313;3026836;-67
2022/03/04 14:43:29;;;;;;;12.90;7.10;;;;;;;3.23;74.15;98412.42;25151;1315;3028621;-68
2022/03/04 14:46:03;;;;;;;21.60;9.40;;;;;;;2.93;75.49;98409.69;25095;1315;3049606;-72
2022/03/04 14:48:33;;;;;;;15.70;8.70;;;;;;;2.72;76.58;98413.58;25061;1315;3052002;-75
2022/03/04 14:51:02;;;;;;;18.10;9.10;;;;;;;2.61;76.96;98413.20;25102;1315;3026616;-74
2022/03/04 14:53:32;;;;;;;18.00;8.30;;;;;;;2.62;77.12;98418.66;25135;1313;3026690;-68
2022/03/04 14:56:01;;;;;;;13.00;7.00;;;;;;;3.01;76.68;98412.92;25132;1313;3028985;-69
2022/03/04 14:58:31;;;;;;;14.70;6.50;;;;;;;3.41;75.24;98412.27;25136;1313;3026640;-73
2022/03/04 15:01:00;;;;;;;13.70;7.50;;;;;;;3.11;75.36;98418.17;25091;1315;3056003;-67
2022/03/04 15:03:30;;;;;;;12.20;7.70;;;;;;;3.16;75.38;98416.23;25092;1315;3026967;-77
2022/03/04 15:05:59;;;;;;;14.40;6.90;;;;;;;2.98;76.01;98416.70;25062;1315;3051502;-72
2022/03/04 15:08:28;;;;;;;19.80;8.50;;;;;;;2.81;76.73;98418.88;25140;1315;3026256;-69
2022/03/04 15:10:58;;;;;;;18.50;9.60;;;;;;;2.77;77.28;98416.45;25154;1313;3053994;-68
2022/03/04 15:13:28;;;;;;;15.90;7.70;;;;;;;2.72;77.57;98412.39;25124;1312;3026956;-69
2022/03/04 15:16:17;;;;;;;13.00;6.40;;;;;;;3.30;76.12;98413.33;25090;1315;3058944;-70